sensor_id;sensor_type;location;lat;lon;timestamp;temperature;humidity
41262;DHT22;29629;52.532;13.352;2022-09-09T00:00:53;15.60;99.90
41262;DHT22;29629;52.532;13.352;2022-09-09T00:03:26;15.60;99.90
41262;DHT22;29629;52.532;13.352;2022-09-09T00:06:00;15.60;99.90
41262;DHT22;29629;52.532;13.352;2022-09-09T00:08:38;15.60;99.90
41262;DHT22;29629;52.532;13.352;2022-09-09T00:11:09;15.60;99.90
41262;DHT22;29629;52.532;13.352;2022-09-09T00:13:42;15.60;99.90
41262;DHT22;29629;52.532;13.352;2022-09-09T00:16:16;15.50;99.90
41262;DHT22;29629;52.532;13.352;2022-09-09T00:18:55;15.50;99.90
41262;DHT22;29629;52.532;13.352;2022-09-09T00:21:26;15.50;99.90
41262;DHT22;29629;52.532;13.352;2022-09-09T00:23:58;15.50;99.90
41262;DHT22;29629;52.532;13.352;2022-09-09T00:26:32;15.50;99.90
41262;DHT22;29629;52.532;13.352;2022-09-09T00:29:04;15.40;99.90
41262;DHT22;29629;52.532;13.352;2022-09-09T00:31:32;15.50;99.90
41262;DHT22;29629;52.532;13.352;2022-09-09T00:34:12;15.40;99.90
41262;DHT22;29629;52.532;13.352;2022-09-09T00:36:40;15.50;99.90
41262;DHT22;29629;52.532;13.352;2022-09-09T00:39:12;15.40;99.90
41262;DHT22;29629;52.532;13.352;2022-09-09T00:41:49;15.40;99.90
41262;DHT22;29629;52.532;13.352;2022-09-09T00:44:27;15.40;99.90
41262;DHT22;29629;52.532;13.352;2022-09-09T00:47:18;15.40;99.90
41262;DHT22;29629;52.532;13.352;2022-09-09T00:49:55;15.40;99.90
41262;DHT22;29629;52.532;13.352;2022-09-09T00:52:35;15.30;99.90
41262;DHT22;29629;52.532;13.352;2022-09-09T00:55:08;15.40;99.90
41262;DHT22;29629;52.532;13.352;2022-09-09T00:57:38;15.40;99.90
41262;DHT22;29629;52.532;13.352;2022-09-09T01:00:23;15.40;99.90
41262;DHT22;29629;52.532;13.352;2022-09-09T01:03:02;15.40;99.90
41262;DHT22;29629;52.532;13.352;2022-09-09T01:05:40;15.30;99.90
41262;DHT22;29629;52.532;13.352;2022-09-09T01:08:19;15.30;99.90
41262;DHT22;29629;52.532;13.352;2022-09-09T01:10:50;15.30;99.90
41262;DHT22;29629;52.532;13.352;2022-09-09T01:13:23;15.30;99.90
41262;DHT22;29629;52.532;13.352;2022-09-09T01:15:50;15.20;99.90
41262;DHT22;29629;52.532;13.352;2022-09-09T01:18:22;15.20;99.90
41262;DHT22;29629;52.532;13.352;2022-09-09T01:20:58;15.20;99.90
41262;DHT22;29629;52.532;13.352;2022-09-09T01:23:38;15.20;99.90
41262;DHT22;29629;52.532;13.352;2022-09-09T01:26:18;15.20;99.90
41262;DHT22;29629;52.532;13.352;2022-09-09T01:28:47;15.20;99.90
41262;DHT22;29629;52.532;13.352;2022-09-09T01:31:19;15.20;99.90
41262;DHT22;29629;52.532;13.352;2022-09-09T01:33:46;15.20;99.90
41262;DHT22;29629;52.532;13.352;2022-09-09T01:36:21;15.10;99.90
41262;DHT22;29629;52.532;13.352;2022-09-09T01:38:51;15.10;99.90
41262;DHT22;29629;52.532;13.352;2022-09-09T01:41:20;15.10;99.90
41262;DHT22;29629;52.532;13.352;2022-09-09T01:43:47;15.00;99.90
41262;DHT22;29629;52.532;13.352;2022-09-09T01:46:14;15.00;99.90
41262;DHT22;29629;52.532;13.352;2022-09-09T01:48:42;15.00;99.90
41262;DHT22;29629;52.532;13.352;2022-09-09T01:51:10;15.00;99.90
41262;DHT22;29629;52.532;13.352;2022-09-09T01:53:37;14.90;99.90
41262;DHT22;29629;52.532;13.352;2022-09-09T01:56:15;14.90;99.90
41262;DHT22;29629;52.532;13.352;2022-09-09T01:58:57;14.90;99.90
41262;DHT22;29629;52.532;13.352;2022-09-09T02:01:32;14.90;99.90
41262;DHT22;29629;52.532;13.352;2022-09-09T02:04:11;14.90;99.90
41262;DHT22;29629;52.532;13.352;2022-09-09T02:06:46;14.90;99.90
41262;DHT22;29629;52.532;13.352;2022-09-09T02:09:17;14.90;99.90
41262;DHT22;29629;52.532;13.352;2022-09-09T02:11:47;14.90;99.90
41262;DHT22;29629;52.532;13.352;2022-09-09T02:14:21;14.90;99.90
41262;DHT22;29629;52.532;13.352;2022-09-09T02:16:52;14.90;99.90
41262;DHT22;29629;52.532;13.352;2022-09-09T02:19:24;14.80;99.90
41262;DHT22;29629;52.532;13.352;2022-09-09T02:21:53;14.90;99.90
41262;DHT22;29629;52.532;13.352;2022-09-09T02:24:22;14.70;99.90
41262;DHT22;29629;52.532;13.352;2022-09-09T02:26:52;14.80;99.90
41262;DHT22;29629;52.532;13.352;2022-09-09T02:29:25;14.80;99.90
41262;DHT22;29629;52.532;13.352;2022-09-09T02:31:54;14.80;99.90
41262;DHT22;29629;52.532;13.352;2022-09-09T02:34:23;14.80;99.90
41262;DHT22;29629;52.532;13.352;2022-09-09T02:36:54;14.80;99.90
41262;DHT22;29629;52.532;13.352;2022-09-09T02:39:21;14.70;99.90
41262;DHT22;29629;52.532;13.352;2022-09-09T02:41:48;14.80;99.90
41262;DHT22;29629;52.532;13.352;2022-09-09T02:44:17;14.70;99.90
41262;DHT22;29629;52.532;13.352;2022-09-09T02:47:07;14.70;99.90
41262;DHT22;29629;52.532;13.352;2022-09-09T02:49:47;14.90;99.90
41262;DHT22;29629;52.532;13.352;2022-09-09T02:52:20;14.80;99.90
41262;DHT22;29629;52.532;13.352;2022-09-09T02:54:55;14.80;99.90
41262;DHT22;29629;52.532;13.352;2022-09-09T02:57:27;14.70;99.90
41262;DHT22;29629;52.532;13.352;2022-09-09T02:59:57;14.70;99.90
41262;DHT22;29629;52.532;13.352;2022-09-09T03:02:25;14.60;99.90
41262;DHT22;29629;52.532;13.352;2022-09-09T03:04:52;14.60;99.90
41262;DHT22;29629;52.532;13.352;2022-09-09T03:07:19;14.70;99.90
41262;DHT22;29629;52.532;13.352;2022-09-09T03:09:47;14.60;99.90
41262;DHT22;29629;52.532;13.352;2022-09-09T03:12:14;14.70;99.90
41262;DHT22;29629;52.532;13.352;2022-09-09T03:14:41;14.70;99.90
41262;DHT22;29629;52.532;13.352;2022-09-09T03:17:09;14.70;99.90
41262;DHT22;29629;52.532;13.352;2022-09-09T03:19:37;14.70;99.90
41262;DHT22;29629;52.532;13.352;2022-09-09T03:22:04;14.70;99.90
41262;DHT22;29629;52.532;13.352;2022-09-09T03:24:31;14.60;99.90
41262;DHT22;29629;52.532;13.352;2022-09-09T03:26:58;14.60;99.90
41262;DHT22;29629;52.532;13.352;2022-09-09T03:29:24;14.60;99.90
41262;DHT22;29629;52.532;13.352;2022-09-09T03:31:51;14.50;99.90
41262;DHT22;29629;52.532;13.352;2022-09-09T03:34:18;14.70;99.90
41262;DHT22;29629;52.532;13.352;2022-09-09T03:36:46;14.60;99.90
41262;DHT22;29629;52.532;13.352;2022-09-09T03:39:14;14.60;99.90
41262;DHT22;29629;52.532;13.352;2022-09-09T03:41:41;14.60;99.90
41262;DHT22;29629;52.532;13.352;2022-09-09T03:44:07;14.50;99.90
41262;DHT22;29629;52.532;13.352;2022-09-09T03:46:34;14.60;99.90
41262;DHT22;29629;52.532;13.352;2022-09-09T03:49:01;14.60;99.90
41262;DHT22;29629;52.532;13.352;2022-09-09T03:51:28;14.60;99.90
41262;DHT22;29629;52.532;13.352;2022-09-09T03:53:56;14.50;99.90
41262;DHT22;29629;52.532;13.352;2022-09-09T03:56:23;14.50;99.90
41262;DHT22;29629;52.532;13.352;2022-09-09T03:58:50;14.50;99.90
41262;DHT22;29629;52.532;13.352;2022-09-09T04:01:17;14.50;99.90
41262;DHT22;29629;52.532;13.352;2022-09-09T04:03:44;14.50;99.90
41262;DHT22;29629;52.532;13.352;2022-09-09T04:06:12;14.50;99.90
41262;DHT22;29629;52.532;13.352;2022-09-09T04:08:40;14.50;99.90
41262;DHT22;29629;52.532;13.352;2022-09-09T04:11:09;14.50;99.90
41262;DHT22;29629;52.532;13.352;2022-09-09T04:13:36;14.50;99.90
41262;DHT22;29629;52.532;13.352;2022-09-09T04:16:05;14.50;99.90
41262;DHT22;29629;52.532;13.352;2022-09-09T04:18:32;14.50;99.90
41262;DHT22;29629;52.532;13.352;2022-09-09T04:20:59;14.50;99.90
41262;DHT22;29629;52.532;13.352;2022-09-09T04:23:27;14.50;99.90
41262;DHT22;29629;52.532;13.352;2022-09-09T04:25:56;14.50;99.90
41262;DHT22;29629;52.532;13.352;2022-09-09T04:28:26;14.40;99.90
41262;DHT22;29629;52.532;13.352;2022-09-09T04:30:54;14.50;99.90
41262;DHT22;29629;52.532;13.352;2022-09-09T04:33:23;14.50;99.90
41262;DHT22;29629;52.532;13.352;2022-09-09T04:35:52;14.50;99.90
41262;DHT22;29629;52.532;13.352;2022-09-09T04:38:20;14.40;99.90
41262;DHT22;29629;52.532;13.352;2022-09-09T04:40:49;14.50;99.90
41262;DHT22;29629;52.532;13.352;2022-09-09T04:43:17;14.50;99.90
41262;DHT22;29629;52.532;13.352;2022-09-09T04:45:47;14.50;99.90
41262;DHT22;29629;52.532;13.352;2022-09-09T04:48:14;14.40;99.90
41262;DHT22;29629;52.532;13.352;2022-09-09T04:50:41;14.50;99.90
41262;DHT22;29629;52.532;13.352;2022-09-09T04:53:09;14.60;99.90
41262;DHT22;29629;52.532;13.352;2022-09-09T04:55:35;14.50;99.90
41262;DHT22;29629;52.532;13.352;2022-09-09T04:58:03;14.50;99.90
41262;DHT22;29629;52.532;13.352;2022-09-09T05:00:31;14.50;99.90
41262;DHT22;29629;52.532;13.352;2022-09-09T05:03:02;14.50;99.90
41262;DHT22;29629;52.532;13.352;2022-09-09T05:05:29;14.50;99.90
41262;DHT22;29629;52.532;13.352;2022-09-09T05:08:01;14.60;99.90
41262;DHT22;29629;52.532;13.352;2022-09-09T05:10:28;14.60;99.90
41262;DHT22;29629;52.532;13.352;2022-09-09T05:12:55;14.60;99.90
41262;DHT22;29629;52.532;13.352;2022-09-09T05:15:22;14.70;99.90
41262;DHT22;29629;52.532;13.352;2022-09-09T05:17:49;14.70;99.90
41262;DHT22;29629;52.532;13.352;2022-09-09T05:20:19;14.70;99.90
41262;DHT22;29629;52.532;13.352;2022-09-09T05:22:46;14.90;99.90
41262;DHT22;29629;52.532;13.352;2022-09-09T05:25:13;14.90;99.90
41262;DHT22;29629;52.532;13.352;2022-09-09T05:27:40;15.00;99.90
41262;DHT22;29629;52.532;13.352;2022-09-09T05:30:08;15.00;99.90
41262;DHT22;29629;52.532;13.352;2022-09-09T05:32:38;15.10;99.90
41262;DHT22;29629;52.532;13.352;2022-09-09T05:35:06;15.20;99.90
41262;DHT22;29629;52.532;13.352;2022-09-09T05:37:34;15.30;99.90
41262;DHT22;29629;52.532;13.352;2022-09-09T05:40:01;15.30;99.90
41262;DHT22;29629;52.532;13.352;2022-09-09T05:42:30;15.40;99.90
41262;DHT22;29629;52.532;13.352;2022-09-09T05:44:57;15.50;99.90
41262;DHT22;29629;52.532;13.352;2022-09-09T05:47:24;15.50;99.90
41262;DHT22;29629;52.532;13.352;2022-09-09T05:49:53;15.70;99.90
41262;DHT22;29629;52.532;13.352;2022-09-09T05:52:20;15.50;99.90
41262;DHT22;29629;52.532;13.352;2022-09-09T05:54:49;15.60;99.90
41262;DHT22;29629;52.532;13.352;2022-09-09T05:57:16;15.80;99.90
41262;DHT22;29629;52.532;13.352;2022-09-09T05:59:44;15.80;99.90
41262;DHT22;29629;52.532;13.352;2022-09-09T06:02:12;16.00;99.90
41262;DHT22;29629;52.532;13.352;2022-09-09T06:04:39;16.10;99.90
41262;DHT22;29629;52.532;13.352;2022-09-09T06:07:07;16.20;99.90
41262;DHT22;29629;52.532;13.352;2022-09-09T06:09:34;16.20;99.90
41262;DHT22;29629;52.532;13.352;2022-09-09T06:12:02;16.20;99.90
41262;DHT22;29629;52.532;13.352;2022-09-09T06:14:29;16.20;99.90
41262;DHT22;29629;52.532;13.352;2022-09-09T06:16:56;16.20;99.90
41262;DHT22;29629;52.532;13.352;2022-09-09T06:19:23;16.20;99.90
41262;DHT22;29629;52.532;13.352;2022-09-09T06:21:51;16.30;99.90
41262;DHT22;29629;52.532;13.352;2022-09-09T06:24:18;16.30;99.90
41262;DHT22;29629;52.532;13.352;2022-09-09T06:26:45;16.40;99.90
41262;DHT22;29629;52.532;13.352;2022-09-09T06:29:13;16.50;99.90
41262;DHT22;29629;52.532;13.352;2022-09-09T06:31:40;16.60;99.90
41262;DHT22;29629;52.532;13.352;2022-09-09T06:34:08;16.80;99.90
41262;DHT22;29629;52.532;13.352;2022-09-09T06:36:36;16.90;99.90
41262;DHT22;29629;52.532;13.352;2022-09-09T06:39:03;16.90;99.90
41262;DHT22;29629;52.532;13.352;2022-09-09T06:41:31;17.20;99.90
41262;DHT22;29629;52.532;13.352;2022-09-09T06:43:59;16.90;99.90
41262;DHT22;29629;52.532;13.352;2022-09-09T06:46:28;16.90;99.90
41262;DHT22;29629;52.532;13.352;2022-09-09T06:48:57;16.80;99.90
41262;DHT22;29629;52.532;13.352;2022-09-09T06:51:26;16.80;99.90
41262;DHT22;29629;52.532;13.352;2022-09-09T06:53:54;16.70;99.90
41262;DHT22;29629;52.532;13.352;2022-09-09T06:56:23;16.70;99.90
41262;DHT22;29629;52.532;13.352;2022-09-09T06:58:51;16.90;99.90
41262;DHT22;29629;52.532;13.352;2022-09-09T07:01:19;17.10;99.90
41262;DHT22;29629;52.532;13.352;2022-09-09T07:03:48;17.20;99.90
41262;DHT22;29629;52.532;13.352;2022-09-09T07:06:17;17.60;99.90
41262;DHT22;29629;52.532;13.352;2022-09-09T07:08:48;17.90;99.90
41262;DHT22;29629;52.532;13.352;2022-09-09T07:11:15;18.00;99.90
41262;DHT22;29629;52.532;13.352;2022-09-09T07:13:42;18.20;99.90
41262;DHT22;29629;52.532;13.352;2022-09-09T07:16:11;18.30;99.90
41262;DHT22;29629;52.532;13.352;2022-09-09T07:18:39;18.50;99.90
41262;DHT22;29629;52.532;13.352;2022-09-09T07:21:09;18.60;99.90
41262;DHT22;29629;52.532;13.352;2022-09-09T07:23:37;18.90;99.90
41262;DHT22;29629;52.532;13.352;2022-09-09T07:26:08;19.10;99.90
41262;DHT22;29629;52.532;13.352;2022-09-09T07:28:35;19.30;99.90
41262;DHT22;29629;52.532;13.352;2022-09-09T07:31:03;19.30;99.90
41262;DHT22;29629;52.532;13.352;2022-09-09T07:33:30;19.20;99.90
41262;DHT22;29629;52.532;13.352;2022-09-09T07:36:04;19.40;99.90
41262;DHT22;29629;52.532;13.352;2022-09-09T07:38:32;19.60;99.90
41262;DHT22;29629;52.532;13.352;2022-09-09T07:41:04;19.70;99.90
41262;DHT22;29629;52.532;13.352;2022-09-09T07:43:32;19.70;99.90
41262;DHT22;29629;52.532;13.352;2022-09-09T07:45:59;19.90;99.90
41262;DHT22;29629;52.532;13.352;2022-09-09T07:48:27;20.10;99.90
41262;DHT22;29629;52.532;13.352;2022-09-09T07:51:04;20.40;99.90
41262;DHT22;29629;52.532;13.352;2022-09-09T07:53:34;20.60;99.90
41262;DHT22;29629;52.532;13.352;2022-09-09T07:56:06;20.40;99.90
41262;DHT22;29629;52.532;13.352;2022-09-09T07:58:35;20.50;99.90
41262;DHT22;29629;52.532;13.352;2022-09-09T08:01:06;20.50;99.90
41262;DHT22;29629;52.532;13.352;2022-09-09T08:03:33;20.60;99.90
41262;DHT22;29629;52.532;13.352;2022-09-09T08:06:01;20.50;99.90
41262;DHT22;29629;52.532;13.352;2022-09-09T08:08:28;20.70;99.90
41262;DHT22;29629;52.532;13.352;2022-09-09T08:11:06;20.80;99.90
41262;DHT22;29629;52.532;13.352;2022-09-09T08:13:34;20.70;99.90
41262;DHT22;29629;52.532;13.352;2022-09-09T08:16:08;20.80;99.90
41262;DHT22;29629;52.532;13.352;2022-09-09T08:18:37;20.70;99.90
41262;DHT22;29629;52.532;13.352;2022-09-09T08:21:06;20.70;99.90
41262;DHT22;29629;52.532;13.352;2022-09-09T08:23:33;21.00;99.90
41262;DHT22;29629;52.532;13.352;2022-09-09T08:26:06;21.10;99.90
41262;DHT22;29629;52.532;13.352;2022-09-09T08:28:34;21.30;99.90
41262;DHT22;29629;52.532;13.352;2022-09-09T08:31:09;21.50;99.90
41262;DHT22;29629;52.532;13.352;2022-09-09T08:33:36;21.50;99.90
41262;DHT22;29629;52.532;13.352;2022-09-09T08:36:04;21.50;99.90
41262;DHT22;29629;52.532;13.352;2022-09-09T08:38:32;21.20;99.90
41262;DHT22;29629;52.532;13.352;2022-09-09T08:44:00;21.40;99.90
41262;DHT22;29629;52.532;13.352;2022-09-09T08:46:32;21.60;99.90
41262;DHT22;29629;52.532;13.352;2022-09-09T08:49:18;21.40;99.90
41262;DHT22;29629;52.532;13.352;2022-09-09T08:51:48;21.20;99.90
41262;DHT22;29629;52.532;13.352;2022-09-09T08:54:16;20.90;99.90
41262;DHT22;29629;52.532;13.352;2022-09-09T08:56:45;20.60;99.90
41262;DHT22;29629;52.532;13.352;2022-09-09T08:59:17;20.80;99.90
41262;DHT22;29629;52.532;13.352;2022-09-09T09:01:53;20.90;99.90
41262;DHT22;29629;52.532;13.352;2022-09-09T09:04:37;20.90;99.90
41262;DHT22;29629;52.532;13.352;2022-09-09T09:07:13;20.90;99.90
41262;DHT22;29629;52.532;13.352;2022-09-09T09:09:54;20.90;99.90
41262;DHT22;29629;52.532;13.352;2022-09-09T09:12:27;20.90;99.90
41262;DHT22;29629;52.532;13.352;2022-09-09T09:14:55;21.00;99.90
41262;DHT22;29629;52.532;13.352;2022-09-09T09:17:27;21.20;99.90
41262;DHT22;29629;52.532;13.352;2022-09-09T09:19:58;21.60;99.90
41262;DHT22;29629;52.532;13.352;2022-09-09T09:22:32;22.00;99.90
41262;DHT22;29629;52.532;13.352;2022-09-09T09:25:08;23.20;99.90
41262;DHT22;29629;52.532;13.352;2022-09-09T09:27:43;23.70;99.90
41262;DHT22;29629;52.532;13.352;2022-09-09T09:30:15;24.50;99.90
41262;DHT22;29629;52.532;13.352;2022-09-09T09:32:50;25.60;99.90
41262;DHT22;29629;52.532;13.352;2022-09-09T09:35:18;26.60;99.90
41262;DHT22;29629;52.532;13.352;2022-09-09T09:37:45;27.60;99.90
41262;DHT22;29629;52.532;13.352;2022-09-09T09:40:13;28.20;99.90
41262;DHT22;29629;52.532;13.352;2022-09-09T09:42:51;29.50;99.90
41262;DHT22;29629;52.532;13.352;2022-09-09T09:45:27;30.60;99.90
41262;DHT22;29629;52.532;13.352;2022-09-09T09:47:59;29.70;99.90
41262;DHT22;29629;52.532;13.352;2022-09-09T09:50:28;30.30;99.90
41262;DHT22;29629;52.532;13.352;2022-09-09T09:52:56;32.30;99.90
41262;DHT22;29629;52.532;13.352;2022-09-09T09:55:24;33.00;99.90
41262;DHT22;29629;52.532;13.352;2022-09-09T09:57:52;33.00;99.90
41262;DHT22;29629;52.532;13.352;2022-09-09T10:00:21;33.30;99.90
41262;DHT22;29629;52.532;13.352;2022-09-09T10:02:49;33.60;99.90
41262;DHT22;29629;52.532;13.352;2022-09-09T10:05:19;34.60;99.90
41262;DHT22;29629;52.532;13.352;2022-09-09T10:07:57;35.40;99.90
41262;DHT22;29629;52.532;13.352;2022-09-09T10:10:37;35.40;99.90
41262;DHT22;29629;52.532;13.352;2022-09-09T10:13:11;29.40;99.90
41262;DHT22;29629;52.532;13.352;2022-09-09T10:15:50;30.30;99.90
41262;DHT22;29629;52.532;13.352;2022-09-09T10:18:42;27.30;99.90
41262;DHT22;29629;52.532;13.352;2022-09-09T10:21:20;28.50;99.90
41262;DHT22;29629;52.532;13.352;2022-09-09T10:23:59;31.40;99.90
41262;DHT22;29629;52.532;13.352;2022-09-09T10:26:36;33.20;99.90
41262;DHT22;29629;52.532;13.352;2022-09-09T10:29:24;34.40;99.90
41262;DHT22;29629;52.532;13.352;2022-09-09T10:32:05;33.10;99.90
41262;DHT22;29629;52.532;13.352;2022-09-09T10:34:56;33.90;99.90
41262;DHT22;29629;52.532;13.352;2022-09-09T10:37:35;32.60;99.90
41262;DHT22;29629;52.532;13.352;2022-09-09T10:40:18;29.60;99.90
41262;DHT22;29629;52.532;13.352;2022-09-09T10:42:47;29.50;99.90
41262;DHT22;29629;52.532;13.352;2022-09-09T10:45:18;29.80;99.90
41262;DHT22;29629;52.532;13.352;2022-09-09T10:48:01;30.50;99.90
41262;DHT22;29629;52.532;13.352;2022-09-09T10:50:58;31.20;99.90
41262;DHT22;29629;52.532;13.352;2022-09-09T10:53:35;31.10;99.90
41262;DHT22;29629;52.532;13.352;2022-09-09T10:56:06;31.40;99.90
41262;DHT22;29629;52.532;13.352;2022-09-09T10:58:40;32.50;99.90
41262;DHT22;29629;52.532;13.352;2022-09-09T11:01:15;32.70;99.90
41262;DHT22;29629;52.532;13.352;2022-09-09T11:03:50;32.90;99.90
41262;DHT22;29629;52.532;13.352;2022-09-09T11:06:18;33.30;99.90
41262;DHT22;29629;52.532;13.352;2022-09-09T11:08:45;33.50;99.90
41262;DHT22;29629;52.532;13.352;2022-09-09T11:11:19;33.20;99.90
41262;DHT22;29629;52.532;13.352;2022-09-09T11:13:53;33.60;99.90
41262;DHT22;29629;52.532;13.352;2022-09-09T11:16:28;32.60;99.90
41262;DHT22;29629;52.532;13.352;2022-09-09T11:19:00;33.30;99.90
41262;DHT22;29629;52.532;13.352;2022-09-09T11:21:32;34.40;99.90
41262;DHT22;29629;52.532;13.352;2022-09-09T11:24:03;33.20;99.90
41262;DHT22;29629;52.532;13.352;2022-09-09T11:26:39;32.80;99.90
41262;DHT22;29629;52.532;13.352;2022-09-09T11:29:38;31.80;99.90
41262;DHT22;29629;52.532;13.352;2022-09-09T11:32:25;31.70;99.90
41262;DHT22;29629;52.532;13.352;2022-09-09T11:35:02;33.40;99.90
41262;DHT22;29629;52.532;13.352;2022-09-09T11:37:55;32.90;99.90
41262;DHT22;29629;52.532;13.352;2022-09-09T11:40:25;33.10;99.90
41262;DHT22;29629;52.532;13.352;2022-09-09T11:43:04;33.40;99.90
41262;DHT22;29629;52.532;13.352;2022-09-09T11:45:33;32.80;99.90
41262;DHT22;29629;52.532;13.352;2022-09-09T11:48:03;31.80;99.90
41262;DHT22;29629;52.532;13.352;2022-09-09T11:50:34;31.60;99.90
41262;DHT22;29629;52.532;13.352;2022-09-09T11:53:19;32.10;99.90
41262;DHT22;29629;52.532;13.352;2022-09-09T11:56:07;30.40;99.90
41262;DHT22;29629;52.532;13.352;2022-09-09T11:58:38;29.40;99.90
41262;DHT22;29629;52.532;13.352;2022-09-09T12:01:26;30.90;99.90
41262;DHT22;29629;52.532;13.352;2022-09-09T12:06:54;32.10;99.20
41262;DHT22;29629;52.532;13.352;2022-09-09T12:09:27;29.10;99.90
41262;DHT22;29629;52.532;13.352;2022-09-09T12:12:06;29.20;99.90
41262;DHT22;29629;52.532;13.352;2022-09-09T12:14:38;30.00;99.90
41262;DHT22;29629;52.532;13.352;2022-09-09T12:17:10;30.30;99.90
41262;DHT22;29629;52.532;13.352;2022-09-09T12:19:45;29.30;99.90
41262;DHT22;29629;52.532;13.352;2022-09-09T12:22:19;29.10;99.90
41262;DHT22;29629;52.532;13.352;2022-09-09T12:24:56;30.00;99.90
41262;DHT22;29629;52.532;13.352;2022-09-09T12:27:30;31.00;99.90
41262;DHT22;29629;52.532;13.352;2022-09-09T12:30:07;31.00;99.90
41262;DHT22;29629;52.532;13.352;2022-09-09T12:32:36;29.70;99.90
41262;DHT22;29629;52.532;13.352;2022-09-09T12:35:11;27.90;99.90
41262;DHT22;29629;52.532;13.352;2022-09-09T12:37:40;27.50;99.90
41262;DHT22;29629;52.532;13.352;2022-09-09T12:40:21;27.90;99.90
41262;DHT22;29629;52.532;13.352;2022-09-09T12:42:48;27.80;99.90
41262;DHT22;29629;52.532;13.352;2022-09-09T12:45:17;28.10;99.90
41262;DHT22;29629;52.532;13.352;2022-09-09T12:47:48;27.80;99.90
41262;DHT22;29629;52.532;13.352;2022-09-09T12:50:21;27.50;99.90
41262;DHT22;29629;52.532;13.352;2022-09-09T12:52:50;27.50;99.90
41262;DHT22;29629;52.532;13.352;2022-09-09T12:55:20;27.10;99.90
41262;DHT22;29629;52.532;13.352;2022-09-09T12:57:51;27.20;99.90
41262;DHT22;29629;52.532;13.352;2022-09-09T13:00:19;27.30;99.90
41262;DHT22;29629;52.532;13.352;2022-09-09T13:02:50;26.40;99.90
41262;DHT22;29629;52.532;13.352;2022-09-09T13:05:21;25.90;99.90
41262;DHT22;29629;52.532;13.352;2022-09-09T13:07:48;25.40;99.90
41262;DHT22;29629;52.532;13.352;2022-09-09T13:10:22;24.80;99.90
41262;DHT22;29629;52.532;13.352;2022-09-09T13:12:50;24.50;99.90
41262;DHT22;29629;52.532;13.352;2022-09-09T13:15:21;24.60;99.90
41262;DHT22;29629;52.532;13.352;2022-09-09T13:17:53;24.20;99.90
41262;DHT22;29629;52.532;13.352;2022-09-09T13:20:23;24.10;99.90
41262;DHT22;29629;52.532;13.352;2022-09-09T13:22:51;24.10;99.90
41262;DHT22;29629;52.532;13.352;2022-09-09T13:25:23;24.10;99.90
41262;DHT22;29629;52.532;13.352;2022-09-09T13:27:54;24.20;99.90
41262;DHT22;29629;52.532;13.352;2022-09-09T13:30:24;24.00;99.90
41262;DHT22;29629;52.532;13.352;2022-09-09T13:33:04;23.80;99.90
41262;DHT22;29629;52.532;13.352;2022-09-09T13:35:33;23.60;99.90
41262;DHT22;29629;52.532;13.352;2022-09-09T13:38:07;23.40;99.90
41262;DHT22;29629;52.532;13.352;2022-09-09T13:40:35;23.40;99.90
41262;DHT22;29629;52.532;13.352;2022-09-09T13:43:02;23.30;99.90
41262;DHT22;29629;52.532;13.352;2022-09-09T13:45:30;23.20;99.90
41262;DHT22;29629;52.532;13.352;2022-09-09T13:48:09;23.50;99.90
41262;DHT22;29629;52.532;13.352;2022-09-09T13:50:40;23.80;99.90
41262;DHT22;29629;52.532;13.352;2022-09-09T13:53:07;24.30;99.90
41262;DHT22;29629;52.532;13.352;2022-09-09T13:55:36;25.10;99.90
41262;DHT22;29629;52.532;13.352;2022-09-09T13:58:04;25.40;99.90
41262;DHT22;29629;52.532;13.352;2022-09-09T14:00:33;25.10;99.90
41262;DHT22;29629;52.532;13.352;2022-09-09T14:03:00;24.80;99.90
41262;DHT22;29629;52.532;13.352;2022-09-09T14:05:29;24.60;99.90
41262;DHT22;29629;52.532;13.352;2022-09-09T14:07:58;24.60;99.90
41262;DHT22;29629;52.532;13.352;2022-09-09T14:10:26;24.80;99.90
41262;DHT22;29629;52.532;13.352;2022-09-09T14:12:53;25.40;99.90
41262;DHT22;29629;52.532;13.352;2022-09-09T14:15:19;25.50;99.90
41262;DHT22;29629;52.532;13.352;2022-09-09T14:17:47;25.20;99.90
41262;DHT22;29629;52.532;13.352;2022-09-09T14:20:14;25.00;99.90
41262;DHT22;29629;52.532;13.352;2022-09-09T14:22:42;25.10;99.90
41262;DHT22;29629;52.532;13.352;2022-09-09T14:25:11;25.00;99.90
41262;DHT22;29629;52.532;13.352;2022-09-09T14:27:38;24.80;99.90
41262;DHT22;29629;52.532;13.352;2022-09-09T14:30:06;24.70;99.90
41262;DHT22;29629;52.532;13.352;2022-09-09T14:32:33;24.50;99.90
41262;DHT22;29629;52.532;13.352;2022-09-09T14:35:00;24.50;99.90
41262;DHT22;29629;52.532;13.352;2022-09-09T14:37:27;24.30;99.90
41262;DHT22;29629;52.532;13.352;2022-09-09T14:39:56;24.20;99.90
41262;DHT22;29629;52.532;13.352;2022-09-09T14:42:24;24.30;99.90
41262;DHT22;29629;52.532;13.352;2022-09-09T14:44:52;24.30;99.90
41262;DHT22;29629;52.532;13.352;2022-09-09T14:47:18;24.20;99.90
41262;DHT22;29629;52.532;13.352;2022-09-09T14:49:45;23.90;99.90
41262;DHT22;29629;52.532;13.352;2022-09-09T14:52:15;23.70;99.90
41262;DHT22;29629;52.532;13.352;2022-09-09T14:54:41;23.50;99.90
41262;DHT22;29629;52.532;13.352;2022-09-09T14:57:08;23.40;99.90
41262;DHT22;29629;52.532;13.352;2022-09-09T14:59:36;23.30;99.90
41262;DHT22;29629;52.532;13.352;2022-09-09T15:02:03;23.40;99.90
41262;DHT22;29629;52.532;13.352;2022-09-09T15:04:30;23.40;99.90
41262;DHT22;29629;52.532;13.352;2022-09-09T15:06:57;23.30;99.90
41262;DHT22;29629;52.532;13.352;2022-09-09T15:09:24;23.10;99.90
41262;DHT22;29629;52.532;13.352;2022-09-09T15:11:51;23.10;99.90
41262;DHT22;29629;52.532;13.352;2022-09-09T15:14:17;23.10;99.90
41262;DHT22;29629;52.532;13.352;2022-09-09T15:16:45;23.20;99.90
41262;DHT22;29629;52.532;13.352;2022-09-09T15:19:12;23.30;99.90
41262;DHT22;29629;52.532;13.352;2022-09-09T15:21:39;23.30;99.90
41262;DHT22;29629;52.532;13.352;2022-09-09T15:24:06;23.30;99.90
41262;DHT22;29629;52.532;13.352;2022-09-09T15:26:33;23.30;99.90
41262;DHT22;29629;52.532;13.352;2022-09-09T15:29:01;23.10;99.90
41262;DHT22;29629;52.532;13.352;2022-09-09T15:31:30;23.00;99.90
41262;DHT22;29629;52.532;13.352;2022-09-09T15:33:59;22.90;99.90
41262;DHT22;29629;52.532;13.352;2022-09-09T15:36:28;22.80;99.90
41262;DHT22;29629;52.532;13.352;2022-09-09T15:38:55;22.70;99.90
41262;DHT22;29629;52.532;13.352;2022-09-09T15:41:23;22.70;99.90
41262;DHT22;29629;52.532;13.352;2022-09-09T15:43:51;22.60;99.90